Standard, California
Current Conditions -  °F | °C
As of 3:15 AM on Saturday 20 Dec 2014 (Local Time) from KO22 Reporting Station
Overcast Overcast  
Wind Chill: 46°   Ceiling: 3600
Heat Index: 46°   Visibility: 5mi
Dew Point: 46°   Wind: 0mph
Humidity: 100%   Direction: NA
Pressure: 30.15"   Gusts: NA
Location:  37.97°N, 120.31°W
Report Text: KO22 201115Z AUTO 00000KT 5SM OVC036 08/08 A3015 RMK AO1
Loading
Personal Weather Stations






























Interactive Weather Map New forecast layout! Learn more

10-Day Weather Forecast

Advertisements
Track Severe Weather on mobile